createdAt,value
2023-03-26T00:01:14.293Z,6.74
2023-03-26T00:06:24.298Z,6.73
2023-03-26T00:11:33.396Z,6.73
2023-03-26T00:16:43.145Z,6.72
2023-03-26T00:21:52.904Z,6.72
2023-03-26T00:27:01.457Z,6.69
2023-03-26T00:32:09.749Z,6.66
2023-03-26T00:37:18.967Z,6.62
2023-03-26T00:42:28.031Z,6.59
2023-03-26T00:47:37.142Z,6.56
2023-03-26T00:52:46.886Z,6.52
2023-03-26T00:57:55.841Z,6.46
2023-03-26T01:03:04.948Z,6.40
2023-03-26T01:08:19.783Z,6.34
2023-03-26T01:13:28.617Z,6.28
2023-03-26T01:18:41.450Z,6.20
2023-03-26T01:23:53.065Z,6.17
2023-03-26T01:29:04.874Z,6.14
2023-03-26T01:34:20.467Z,6.12
2023-03-26T01:39:39.221Z,6.08
2023-03-26T01:44:52.361Z,6.04
2023-03-26T01:50:00.692Z,5.98
2023-03-26T01:55:12.066Z,5.93
2023-03-26T02:00:28.139Z,5.90
2023-03-26T02:05:44.383Z,5.87
2023-03-26T02:10:58.757Z,5.84
2023-03-26T02:16:08.925Z,5.81
2023-03-26T02:21:20.872Z,5.82
2023-03-26T02:26:29.131Z,5.85
2023-03-26T02:31:48.691Z,5.87
2023-03-26T02:36:57.593Z,5.92
2023-03-26T02:42:06.474Z,5.96
2023-03-26T02:47:19.929Z,6.00
2023-03-26T02:52:34.218Z,6.04
2023-03-26T02:57:43.257Z,6.08
2023-03-26T03:03:04.473Z,6.09
2023-03-26T03:08:12.833Z,6.10
2023-03-26T03:13:27.844Z,6.11
2023-03-26T03:18:36.871Z,6.11
2023-03-26T03:23:45.620Z,6.09
2023-03-26T03:28:55.569Z,6.08
2023-03-26T03:34:04.080Z,6.11
2023-03-26T03:39:14.741Z,6.14
2023-03-26T03:44:23.716Z,6.16
2023-03-26T03:49:32.050Z,6.17
2023-03-26T03:54:39.448Z,6.19
2023-03-26T04:00:01.893Z,6.20
2023-03-26T04:05:23.980Z,6.23
2023-03-26T04:10:33.073Z,6.25
2023-03-26T04:16:01.661Z,6.26
2023-03-26T04:21:12.930Z,6.29
2023-03-26T04:26:21.880Z,6.31
2023-03-26T04:31:43.530Z,6.31
2023-03-26T04:36:55.469Z,6.33
2023-03-26T04:42:07.780Z,6.35
2023-03-26T04:47:26.219Z,6.36
2023-03-26T04:52:34.962Z,6.39
2023-03-26T04:58:06.337Z,6.40
2023-03-26T05:03:51.729Z,6.42
2023-03-26T05:09:00.237Z,6.44
2023-03-26T05:14:33.614Z,6.47
2023-03-26T05:19:43.048Z,6.50
2023-03-26T05:24:51.867Z,6.53
2023-03-26T05:30:07.749Z,6.57
2023-03-26T05:35:21.106Z,6.60
2023-03-26T05:40:30.210Z,6.63
2023-03-26T05:45:41.306Z,6.67
2023-03-26T05:51:00.864Z,6.71
2023-03-26T05:56:13.000Z,6.73
2023-03-26T06:01:56.824Z,6.76
2023-03-26T06:07:05.457Z,6.79
2023-03-26T06:12:14.667Z,6.81
2023-03-26T06:17:23.182Z,6.84
2023-03-26T06:23:03.649Z,6.87
2023-03-26T06:28:29.178Z,6.90
2023-03-26T06:33:56.711Z,6.95
2023-03-26T06:39:07.876Z,7.00
2023-03-26T06:44:19.268Z,7.05
2023-03-26T06:49:59.573Z,7.08
2023-03-26T06:55:17.516Z,7.13
2023-03-26T07:00:42.665Z,7.16
2023-03-26T07:06:10.020Z,7.21
2023-03-26T07:11:58.570Z,7.26
2023-03-26T07:17:15.859Z,7.33
2023-03-26T07:22:38.260Z,7.39
2023-03-26T07:28:14.515Z,7.46
2023-03-26T07:33:47.250Z,7.57
2023-03-26T07:39:38.046Z,7.66
2023-03-26T07:45:13.372Z,7.77
2023-03-26T07:50:42.846Z,7.84
2023-03-26T07:56:07.679Z,7.90
2023-03-26T08:01:41.829Z,7.93
2023-03-26T08:07:02.463Z,7.92
2023-03-26T08:12:41.161Z,7.94
2023-03-26T08:17:55.118Z,7.97
2023-03-26T08:23:09.757Z,8.03
2023-03-26T08:28:33.889Z,8.08
2023-03-26T08:33:42.671Z,8.16
2023-03-26T08:38:52.830Z,8.22
2023-03-26T08:44:19.027Z,8.26
2023-03-26T08:50:00.300Z,8.31
2023-03-26T08:55:31.189Z,8.36
2023-03-26T09:00:59.401Z,8.45
2023-03-26T09:06:52.595Z,8.53
2023-03-26T09:12:32.741Z,8.59
2023-03-26T09:18:11.374Z,8.61
2023-03-26T09:23:42.132Z,8.64
2023-03-26T09:29:24.018Z,8.69
2023-03-26T09:34:35.763Z,8.79
2023-03-26T09:39:59.854Z,8.90
2023-03-26T09:45:45.421Z,8.98
2023-03-26T09:51:17.769Z,8.97
2023-03-26T09:56:39.711Z,8.95
2023-03-26T10:01:59.517Z,8.92
2023-03-26T10:07:19.142Z,8.89
2023-03-26T10:12:37.504Z,8.86
2023-03-26T10:18:02.731Z,8.79
2023-03-26T10:24:03.007Z,8.69
2023-03-26T10:29:26.523Z,8.59
2023-03-26T10:34:52.666Z,8.53
2023-03-26T10:40:24.677Z,8.50
2023-03-26T10:45:48.893Z,8.50
2023-03-26T10:51:25.757Z,8.50
2023-03-26T10:56:38.352Z,8.52
2023-03-26T11:02:02.101Z,8.58
2023-03-26T11:07:21.708Z,8.70
2023-03-26T11:12:39.561Z,8.87
2023-03-26T11:18:00.827Z,9.03
2023-03-26T11:23:24.540Z,9.15
2023-03-26T11:29:03.284Z,9.23
2023-03-26T11:34:20.979Z,9.27
2023-03-26T11:39:31.444Z,9.21
2023-03-26T11:44:44.838Z,9.09
2023-03-26T11:49:55.847Z,8.95
2023-03-26T11:55:04.542Z,8.87
2023-03-26T12:00:19.177Z,8.89
2023-03-26T12:05:31.995Z,8.98
2023-03-26T12:10:44.714Z,9.10
2023-03-26T12:15:53.752Z,9.21
2023-03-26T12:21:11.095Z,9.30
2023-03-26T12:26:23.582Z,9.38
2023-03-26T12:31:31.588Z,9.42
2023-03-26T12:36:40.550Z,9.43
2023-03-26T12:44:42.568Z,9.43
2023-03-26T12:47:56.570Z,9.45
2023-03-26T12:53:08.308Z,9.55
2023-03-26T12:58:41.540Z,9.69
2023-03-26T13:04:10.147Z,9.85
2023-03-26T13:09:57.343Z,9.93
2023-03-26T13:15:18.070Z,9.98
2023-03-26T13:20:34.046Z,10.00
2023-03-26T13:25:56.493Z,9.97
2023-03-26T13:31:11.195Z,9.88
2023-03-26T13:36:25.164Z,9.79
2023-03-26T13:41:46.507Z,9.66
2023-03-26T13:47:01.487Z,9.55
2023-03-26T13:52:14.763Z,9.40
2023-03-26T13:57:27.274Z,9.24
2023-03-26T14:02:39.499Z,9.06
2023-03-26T14:07:49.765Z,8.88
2023-03-26T14:13:02.438Z,8.73
2023-03-26T14:18:27.032Z,8.60
2023-03-26T14:23:54.708Z,8.45
2023-03-26T14:29:31.485Z,8.34
2023-03-26T14:34:54.939Z,8.27
2023-03-26T14:40:32.605Z,8.29
2023-03-26T14:46:08.239Z,8.26
2023-03-26T14:51:29.137Z,8.36
2023-03-26T14:57:04.874Z,8.37
2023-03-26T15:02:47.575Z,8.35
2023-03-26T15:08:23.832Z,8.30
2023-03-26T15:14:12.888Z,8.25
2023-03-26T15:19:47.270Z,8.19
2023-03-26T15:25:30.557Z,8.14
2023-03-26T15:31:10.337Z,8.09
2023-03-26T15:37:00.833Z,8.03
2023-03-26T15:42:17.501Z,7.98
2023-03-26T15:47:54.612Z,7.96
2023-03-26T15:53:15.233Z,7.94
2023-03-26T15:58:31.162Z,7.92
2023-03-26T16:03:50.860Z,7.89
2023-03-26T16:09:13.205Z,7.86
2023-03-26T16:14:24.534Z,7.83
2023-03-26T16:19:52.409Z,7.79
2023-03-26T16:25:27.357Z,7.74
2023-03-26T16:30:38.152Z,7.68
2023-03-26T16:36:18.948Z,7.63
2023-03-26T16:41:30.936Z,7.58
2023-03-26T16:46:52.265Z,7.53
2023-03-26T16:52:13.212Z,7.48
2023-03-26T16:57:40.310Z,7.43
2023-03-26T17:03:00.333Z,7.39
2023-03-26T17:08:36.400Z,7.34
2023-03-26T17:13:56.764Z,7.29
2023-03-26T17:19:16.162Z,7.26
2023-03-26T17:24:39.449Z,7.21
2023-03-26T17:30:38.227Z,7.14
2023-03-26T17:35:48.717Z,7.11
2023-03-26T17:40:59.163Z,7.08
2023-03-26T17:46:15.380Z,7.04
2023-03-26T17:51:49.280Z,7.02
2023-03-26T17:57:03.898Z,6.97
2023-03-26T18:02:18.854Z,6.84
2023-03-26T18:07:57.327Z,6.86
2023-03-26T18:13:37.743Z,6.81
2023-03-26T18:18:53.173Z,6.74
2023-03-26T18:24:03.386Z,6.65
2023-03-26T18:29:27.670Z,6.58
2023-03-26T18:34:41.829Z,6.49
2023-03-26T18:40:02.706Z,6.39
2023-03-26T18:45:18.615Z,6.28
2023-03-26T18:50:30.598Z,6.18
2023-03-26T18:55:39.998Z,6.09
2023-03-26T19:00:50.371Z,6.01
2023-03-26T19:06:00.240Z,5.96
2023-03-26T19:11:10.919Z,5.91
2023-03-26T19:16:26.810Z,5.89
2023-03-26T19:21:36.461Z,5.87
2023-03-26T19:26:45.522Z,5.85
2023-03-26T19:32:03.482Z,5.82
2023-03-26T19:37:25.530Z,5.83
2023-03-26T19:42:44.059Z,5.84
2023-03-26T19:48:07.358Z,5.85
2023-03-26T19:53:33.328Z,5.85
2023-03-26T19:58:42.490Z,5.83
2023-03-26T20:03:53.933Z,5.83
2023-03-26T20:09:01.589Z,5.82
2023-03-26T20:14:16.001Z,5.83
2023-03-26T20:19:25.472Z,5.83
2023-03-26T20:24:35.207Z,5.84
2023-03-26T20:29:44.126Z,5.83
2023-03-26T20:34:53.150Z,5.82
2023-03-26T20:40:01.451Z,5.80
2023-03-26T20:45:19.830Z,5.79
2023-03-26T20:50:28.808Z,5.79
2023-03-26T20:55:37.429Z,5.78
2023-03-26T21:00:46.939Z,5.77
2023-03-26T21:05:55.459Z,5.78
2023-03-26T21:11:03.863Z,5.79
2023-03-26T21:16:15.019Z,5.77
2023-03-26T21:21:37.496Z,5.78
2023-03-26T21:26:51.653Z,5.77
2023-03-26T21:32:00.700Z,5.76
2023-03-26T21:37:09.521Z,5.74
2023-03-26T21:42:18.306Z,5.71
2023-03-26T21:47:27.535Z,5.69
2023-03-26T21:52:37.596Z,5.67
2023-03-26T21:58:03.636Z,5.65
2023-03-26T22:03:21.120Z,5.62
2023-03-26T22:08:34.886Z,5.58
2023-03-26T22:13:43.166Z,5.54
2023-03-26T22:18:51.265Z,5.49
2023-03-26T22:23:58.738Z,5.43
2023-03-26T22:29:07.368Z,5.34
2023-03-26T22:34:15.705Z,5.25
2023-03-26T22:39:23.489Z,5.17
2023-03-26T22:44:31.825Z,5.06
2023-03-26T22:49:40.405Z,4.96
2023-03-26T22:54:47.864Z,4.85
2023-03-26T22:59:56.232Z,4.74
2023-03-26T23:05:03.618Z,4.61
2023-03-26T23:10:14.100Z,4.48
2023-03-26T23:15:21.456Z,4.34
2023-03-26T23:20:29.642Z,4.24
2023-03-26T23:25:37.095Z,4.12
2023-03-26T23:30:52.633Z,4.00
2023-03-26T23:36:07.531Z,3.88
2023-03-26T23:41:17.745Z,3.76
2023-03-26T23:46:31.949Z,3.63
2023-03-26T23:51:40.307Z,3.50
2023-03-26T23:56:49.415Z,3.37
